sensor_id;sensor_type;location;lat;lon;timestamp;temperature;humidity
27164;DHT22;14685;50.618;7.024;2023-03-23T00:01:14;14.00;99.90
27164;DHT22;14685;50.618;7.024;2023-03-23T00:03:42;14.00;99.90
27164;DHT22;14685;50.618;7.024;2023-03-23T00:06:09;13.90;99.90
27164;DHT22;14685;50.618;7.024;2023-03-23T00:08:38;13.90;99.90
27164;DHT22;14685;50.618;7.024;2023-03-23T00:11:16;13.90;99.90
27164;DHT22;14685;50.618;7.024;2023-03-23T00:13:48;13.90;99.90
27164;DHT22;14685;50.618;7.024;2023-03-23T00:16:20;13.90;99.90
27164;DHT22;14685;50.618;7.024;2023-03-23T00:18:57;13.90;99.90
27164;DHT22;14685;50.618;7.024;2023-03-23T00:21:34;13.90;99.90
27164;DHT22;14685;50.618;7.024;2023-03-23T00:26:31;13.80;99.90
27164;DHT22;14685;50.618;7.024;2023-03-23T00:29:21;13.80;99.90
27164;DHT22;14685;50.618;7.024;2023-03-23T00:31:49;13.80;99.90
27164;DHT22;14685;50.618;7.024;2023-03-23T00:34:18;13.80;99.90
27164;DHT22;14685;50.618;7.024;2023-03-23T00:36:48;13.70;99.90
27164;DHT22;14685;50.618;7.024;2023-03-23T00:39:17;13.80;99.90
27164;DHT22;14685;50.618;7.024;2023-03-23T00:41:45;13.90;99.90
27164;DHT22;14685;50.618;7.024;2023-03-23T00:44:13;13.70;99.90
27164;DHT22;14685;50.618;7.024;2023-03-23T00:46:48;13.80;99.90
27164;DHT22;14685;50.618;7.024;2023-03-23T00:49:20;13.80;99.90
27164;DHT22;14685;50.618;7.024;2023-03-23T00:51:56;13.80;99.90
27164;DHT22;14685;50.618;7.024;2023-03-23T00:54:25;13.80;99.90
27164;DHT22;14685;50.618;7.024;2023-03-23T00:56:52;13.80;99.90
27164;DHT22;14685;50.618;7.024;2023-03-23T00:59:19;13.80;99.90
27164;DHT22;14685;50.618;7.024;2023-03-23T01:01:48;13.70;99.90
27164;DHT22;14685;50.618;7.024;2023-03-23T01:04:15;13.70;99.90
27164;DHT22;14685;50.618;7.024;2023-03-23T01:06:44;13.70;99.90
27164;DHT22;14685;50.618;7.024;2023-03-23T01:09:14;13.70;99.90
27164;DHT22;14685;50.618;7.024;2023-03-23T01:11:45;13.80;99.90
27164;DHT22;14685;50.618;7.024;2023-03-23T01:14:14;13.80;99.90
27164;DHT22;14685;50.618;7.024;2023-03-23T01:16:43;13.70;99.90
27164;DHT22;14685;50.618;7.024;2023-03-23T01:19:10;13.80;99.90
27164;DHT22;14685;50.618;7.024;2023-03-23T01:21:37;13.80;99.90
27164;DHT22;14685;50.618;7.024;2023-03-23T01:24:04;13.70;99.90
27164;DHT22;14685;50.618;7.024;2023-03-23T01:26:31;13.70;99.90
27164;DHT22;14685;50.618;7.024;2023-03-23T01:28:59;13.70;99.90
27164;DHT22;14685;50.618;7.024;2023-03-23T01:31:27;13.70;99.90
27164;DHT22;14685;50.618;7.024;2023-03-23T01:33:54;13.70;99.90
27164;DHT22;14685;50.618;7.024;2023-03-23T01:36:25;13.70;99.90
27164;DHT22;14685;50.618;7.024;2023-03-23T01:38:55;13.70;99.90
27164;DHT22;14685;50.618;7.024;2023-03-23T01:41:24;13.70;99.90
27164;DHT22;14685;50.618;7.024;2023-03-23T01:44:07;13.70;99.90
27164;DHT22;14685;50.618;7.024;2023-03-23T01:46:53;13.70;99.90
27164;DHT22;14685;50.618;7.024;2023-03-23T01:49:37;13.70;99.90
27164;DHT22;14685;50.618;7.024;2023-03-23T01:52:16;13.70;99.90
27164;DHT22;14685;50.618;7.024;2023-03-23T01:54:49;13.70;99.90
27164;DHT22;14685;50.618;7.024;2023-03-23T01:57:19;13.70;99.90
27164;DHT22;14685;50.618;7.024;2023-03-23T01:59:52;13.70;99.90
27164;DHT22;14685;50.618;7.024;2023-03-23T02:02:23;13.70;99.90
27164;DHT22;14685;50.618;7.024;2023-03-23T02:04:51;13.70;99.90
27164;DHT22;14685;50.618;7.024;2023-03-23T02:07:22;13.70;99.90
27164;DHT22;14685;50.618;7.024;2023-03-23T02:09:51;13.60;99.90
27164;DHT22;14685;50.618;7.024;2023-03-23T02:12:18;13.60;99.90
27164;DHT22;14685;50.618;7.024;2023-03-23T02:14:46;13.60;99.90
27164;DHT22;14685;50.618;7.024;2023-03-23T02:17:38;13.60;99.90
27164;DHT22;14685;50.618;7.024;2023-03-23T02:28:38;13.40;99.90
27164;DHT22;14685;50.618;7.024;2023-03-23T02:33:52;13.40;99.90
27164;DHT22;14685;50.618;7.024;2023-03-23T02:41:55;13.40;99.90
27164;DHT22;14685;50.618;7.024;2023-03-23T02:44:27;13.50;99.90
27164;DHT22;14685;50.618;7.024;2023-03-23T02:46:57;13.50;99.90
27164;DHT22;14685;50.618;7.024;2023-03-23T02:49:26;13.40;99.90
27164;DHT22;14685;50.618;7.024;2023-03-23T02:51:56;13.40;99.90
27164;DHT22;14685;50.618;7.024;2023-03-23T02:54:24;13.40;99.90
27164;DHT22;14685;50.618;7.024;2023-03-23T02:56:54;13.40;99.90
27164;DHT22;14685;50.618;7.024;2023-03-23T02:59:21;13.40;99.90
27164;DHT22;14685;50.618;7.024;2023-03-23T03:02:01;13.40;99.90
27164;DHT22;14685;50.618;7.024;2023-03-23T03:04:31;13.40;99.90
27164;DHT22;14685;50.618;7.024;2023-03-23T03:07:07;13.40;99.90
27164;DHT22;14685;50.618;7.024;2023-03-23T03:09:46;13.30;99.90
27164;DHT22;14685;50.618;7.024;2023-03-23T03:12:29;13.30;99.90
27164;DHT22;14685;50.618;7.024;2023-03-23T03:15:22;13.30;99.90
27164;DHT22;14685;50.618;7.024;2023-03-23T03:20:25;13.20;99.90
27164;DHT22;14685;50.618;7.024;2023-03-23T03:22:55;13.20;99.90
27164;DHT22;14685;50.618;7.024;2023-03-23T03:25:23;13.20;99.90
27164;DHT22;14685;50.618;7.024;2023-03-23T03:27:53;13.20;99.90
27164;DHT22;14685;50.618;7.024;2023-03-23T03:30:25;13.20;99.90
27164;DHT22;14685;50.618;7.024;2023-03-23T03:32:53;13.10;99.90
27164;DHT22;14685;50.618;7.024;2023-03-23T03:35:22;13.20;99.90
27164;DHT22;14685;50.618;7.024;2023-03-23T03:37:50;13.20;99.90
27164;DHT22;14685;50.618;7.024;2023-03-23T03:40:20;13.20;99.90
27164;DHT22;14685;50.618;7.024;2023-03-23T03:42:47;13.10;99.90
27164;DHT22;14685;50.618;7.024;2023-03-23T03:45:18;13.20;99.90
27164;DHT22;14685;50.618;7.024;2023-03-23T03:47:45;13.20;99.90
27164;DHT22;14685;50.618;7.024;2023-03-23T03:50:12;13.20;99.90
27164;DHT22;14685;50.618;7.024;2023-03-23T03:52:39;13.20;99.90
27164;DHT22;14685;50.618;7.024;2023-03-23T03:55:09;13.20;99.90
27164;DHT22;14685;50.618;7.024;2023-03-23T03:57:37;13.30;99.90
27164;DHT22;14685;50.618;7.024;2023-03-23T04:00:08;13.30;99.90
27164;DHT22;14685;50.618;7.024;2023-03-23T04:02:44;13.30;99.90
27164;DHT22;14685;50.618;7.024;2023-03-23T04:05:14;13.40;99.90
27164;DHT22;14685;50.618;7.024;2023-03-23T04:07:41;13.30;99.90
27164;DHT22;14685;50.618;7.024;2023-03-23T04:10:10;13.30;99.90
27164;DHT22;14685;50.618;7.024;2023-03-23T04:12:58;13.40;99.90
27164;DHT22;14685;50.618;7.024;2023-03-23T04:15:25;13.30;99.90
27164;DHT22;14685;50.618;7.024;2023-03-23T04:17:52;13.30;99.90
27164;DHT22;14685;50.618;7.024;2023-03-23T04:20:19;13.30;99.90
27164;DHT22;14685;50.618;7.024;2023-03-23T04:22:57;13.30;99.90
27164;DHT22;14685;50.618;7.024;2023-03-23T04:25:27;13.40;99.90
27164;DHT22;14685;50.618;7.024;2023-03-23T04:27:54;13.40;99.90
27164;DHT22;14685;50.618;7.024;2023-03-23T04:30:23;13.40;99.90
27164;DHT22;14685;50.618;7.024;2023-03-23T04:32:51;13.40;99.90
27164;DHT22;14685;50.618;7.024;2023-03-23T04:35:19;13.40;99.90
27164;DHT22;14685;50.618;7.024;2023-03-23T04:37:48;13.30;99.90
27164;DHT22;14685;50.618;7.024;2023-03-23T04:40:17;13.30;99.90
27164;DHT22;14685;50.618;7.024;2023-03-23T04:42:44;13.30;99.90
27164;DHT22;14685;50.618;7.024;2023-03-23T04:45:17;13.40;99.90
27164;DHT22;14685;50.618;7.024;2023-03-23T04:47:49;13.40;99.90
27164;DHT22;14685;50.618;7.024;2023-03-23T04:50:28;13.50;99.90
27164;DHT22;14685;50.618;7.024;2023-03-23T04:52:57;13.20;99.90
27164;DHT22;14685;50.618;7.024;2023-03-23T04:55:25;13.50;99.90
27164;DHT22;14685;50.618;7.024;2023-03-23T04:57:53;13.40;99.90
27164;DHT22;14685;50.618;7.024;2023-03-23T05:00:20;13.40;99.90
27164;DHT22;14685;50.618;7.024;2023-03-23T05:02:48;13.40;99.90
27164;DHT22;14685;50.618;7.024;2023-03-23T05:05:19;13.40;99.90
27164;DHT22;14685;50.618;7.024;2023-03-23T05:07:47;13.30;99.90
27164;DHT22;14685;50.618;7.024;2023-03-23T05:10:23;13.30;99.90
27164;DHT22;14685;50.618;7.024;2023-03-23T05:12:52;13.30;99.90
27164;DHT22;14685;50.618;7.024;2023-03-23T05:15:22;13.20;99.90
27164;DHT22;14685;50.618;7.024;2023-03-23T05:17:52;13.20;99.90
27164;DHT22;14685;50.618;7.024;2023-03-23T05:20:19;13.20;99.90
27164;DHT22;14685;50.618;7.024;2023-03-23T05:22:47;13.20;99.90
27164;DHT22;14685;50.618;7.024;2023-03-23T05:25:17;13.20;99.90
27164;DHT22;14685;50.618;7.024;2023-03-23T05:27:49;13.20;99.90
27164;DHT22;14685;50.618;7.024;2023-03-23T05:30:21;13.20;99.90
27164;DHT22;14685;50.618;7.024;2023-03-23T05:32:48;13.20;99.90
27164;DHT22;14685;50.618;7.024;2023-03-23T05:35:19;13.10;99.90
27164;DHT22;14685;50.618;7.024;2023-03-23T05:37:48;13.10;99.90
27164;DHT22;14685;50.618;7.024;2023-03-23T05:40:16;13.10;99.90
27164;DHT22;14685;50.618;7.024;2023-03-23T05:42:43;13.00;99.90
27164;DHT22;14685;50.618;7.024;2023-03-23T05:45:12;13.10;99.90
27164;DHT22;14685;50.618;7.024;2023-03-23T05:47:40;13.20;99.90
27164;DHT22;14685;50.618;7.024;2023-03-23T05:50:10;13.20;99.90
27164;DHT22;14685;50.618;7.024;2023-03-23T05:52:39;13.20;99.90
27164;DHT22;14685;50.618;7.024;2023-03-23T05:55:07;13.10;99.90
27164;DHT22;14685;50.618;7.024;2023-03-23T05:57:34;13.20;99.90
27164;DHT22;14685;50.618;7.024;2023-03-23T06:00:04;13.10;99.90
27164;DHT22;14685;50.618;7.024;2023-03-23T06:02:40;13.20;99.90
27164;DHT22;14685;50.618;7.024;2023-03-23T06:05:11;13.20;99.90
27164;DHT22;14685;50.618;7.024;2023-03-23T06:07:39;13.20;99.90
27164;DHT22;14685;50.618;7.024;2023-03-23T06:10:07;13.40;99.90
27164;DHT22;14685;50.618;7.024;2023-03-23T06:12:37;13.30;99.90
27164;DHT22;14685;50.618;7.024;2023-03-23T06:15:04;13.30;99.90
27164;DHT22;14685;50.618;7.024;2023-03-23T06:17:54;13.30;99.90
27164;DHT22;14685;50.618;7.024;2023-03-23T06:20:23;13.30;99.90
27164;DHT22;14685;50.618;7.024;2023-03-23T06:22:51;13.40;99.90
27164;DHT22;14685;50.618;7.024;2023-03-23T06:25:18;13.40;99.90
27164;DHT22;14685;50.618;7.024;2023-03-23T06:27:47;13.40;99.90
27164;DHT22;14685;50.618;7.024;2023-03-23T06:30:14;13.50;99.90
27164;DHT22;14685;50.618;7.024;2023-03-23T06:32:42;13.40;99.90
27164;DHT22;14685;50.618;7.024;2023-03-23T06:35:09;13.40;99.90
27164;DHT22;14685;50.618;7.024;2023-03-23T06:37:37;13.40;99.90
27164;DHT22;14685;50.618;7.024;2023-03-23T06:40:05;13.50;99.90
27164;DHT22;14685;50.618;7.024;2023-03-23T06:42:33;13.50;99.90
27164;DHT22;14685;50.618;7.024;2023-03-23T06:45:00;13.50;99.90
27164;DHT22;14685;50.618;7.024;2023-03-23T06:47:28;13.50;99.90
27164;DHT22;14685;50.618;7.024;2023-03-23T06:49:59;13.60;99.90
27164;DHT22;14685;50.618;7.024;2023-03-23T06:52:26;13.60;99.90
27164;DHT22;14685;50.618;7.024;2023-03-23T06:54:53;13.50;99.90
27164;DHT22;14685;50.618;7.024;2023-03-23T06:57:20;13.60;99.90
27164;DHT22;14685;50.618;7.024;2023-03-23T06:59:47;13.50;99.90
27164;DHT22;14685;50.618;7.024;2023-03-23T07:02:14;13.70;99.90
27164;DHT22;14685;50.618;7.024;2023-03-23T07:04:41;13.80;99.90
27164;DHT22;14685;50.618;7.024;2023-03-23T07:07:09;13.60;99.90
27164;DHT22;14685;50.618;7.024;2023-03-23T07:09:37;13.70;99.90
27164;DHT22;14685;50.618;7.024;2023-03-23T07:12:08;13.70;99.90
27164;DHT22;14685;50.618;7.024;2023-03-23T07:14:40;13.70;99.90
27164;DHT22;14685;50.618;7.024;2023-03-23T07:17:07;13.70;99.90
27164;DHT22;14685;50.618;7.024;2023-03-23T07:19:34;13.70;99.90
27164;DHT22;14685;50.618;7.024;2023-03-23T07:22:06;13.70;99.90
27164;DHT22;14685;50.618;7.024;2023-03-23T07:24:40;13.80;99.90
27164;DHT22;14685;50.618;7.024;2023-03-23T07:27:10;13.80;99.90
27164;DHT22;14685;50.618;7.024;2023-03-23T07:29:37;13.80;99.90
27164;DHT22;14685;50.618;7.024;2023-03-23T07:32:06;13.80;99.90
27164;DHT22;14685;50.618;7.024;2023-03-23T07:34:33;13.80;99.90
27164;DHT22;14685;50.618;7.024;2023-03-23T07:37:00;13.90;99.90
27164;DHT22;14685;50.618;7.024;2023-03-23T07:39:27;14.00;99.90
27164;DHT22;14685;50.618;7.024;2023-03-23T07:41:54;14.10;99.90
27164;DHT22;14685;50.618;7.024;2023-03-23T07:44:21;14.10;99.90
27164;DHT22;14685;50.618;7.024;2023-03-23T07:46:49;14.00;99.90
27164;DHT22;14685;50.618;7.024;2023-03-23T07:54:13;13.80;99.90
27164;DHT22;14685;50.618;7.024;2023-03-23T07:56:41;14.10;99.90
27164;DHT22;14685;50.618;7.024;2023-03-23T07:59:08;14.20;99.90
27164;DHT22;14685;50.618;7.024;2023-03-23T08:01:35;14.20;99.90
27164;DHT22;14685;50.618;7.024;2023-03-23T08:04:02;14.10;99.90
27164;DHT22;14685;50.618;7.024;2023-03-23T08:06:32;14.20;99.90
27164;DHT22;14685;50.618;7.024;2023-03-23T08:09:00;14.20;99.90
27164;DHT22;14685;50.618;7.024;2023-03-23T08:11:36;14.30;99.90
27164;DHT22;14685;50.618;7.024;2023-03-23T08:14:04;14.40;99.90
27164;DHT22;14685;50.618;7.024;2023-03-23T08:16:32;14.50;99.90
27164;DHT22;14685;50.618;7.024;2023-03-23T08:18:59;14.60;99.90
27164;DHT22;14685;50.618;7.024;2023-03-23T08:21:34;14.60;99.90
27164;DHT22;14685;50.618;7.024;2023-03-23T08:24:03;14.60;99.90
27164;DHT22;14685;50.618;7.024;2023-03-23T08:26:31;14.60;99.90
27164;DHT22;14685;50.618;7.024;2023-03-23T08:28:59;14.60;99.90
27164;DHT22;14685;50.618;7.024;2023-03-23T08:31:26;14.50;99.90
27164;DHT22;14685;50.618;7.024;2023-03-23T08:33:55;14.50;99.90
27164;DHT22;14685;50.618;7.024;2023-03-23T08:36:23;14.40;99.90
27164;DHT22;14685;50.618;7.024;2023-03-23T08:38:51;14.40;99.90
27164;DHT22;14685;50.618;7.024;2023-03-23T08:41:20;14.40;99.90
27164;DHT22;14685;50.618;7.024;2023-03-23T08:43:48;14.40;99.90
27164;DHT22;14685;50.618;7.024;2023-03-23T08:46:14;14.50;99.90
27164;DHT22;14685;50.618;7.024;2023-03-23T08:48:42;14.50;99.90
27164;DHT22;14685;50.618;7.024;2023-03-23T08:51:11;14.50;99.90
27164;DHT22;14685;50.618;7.024;2023-03-23T08:53:38;14.50;99.90
27164;DHT22;14685;50.618;7.024;2023-03-23T08:56:07;14.50;99.90
27164;DHT22;14685;50.618;7.024;2023-03-23T08:58:35;14.60;99.90
27164;DHT22;14685;50.618;7.024;2023-03-23T09:01:03;14.60;99.90
27164;DHT22;14685;50.618;7.024;2023-03-23T09:03:33;14.60;99.90
27164;DHT22;14685;50.618;7.024;2023-03-23T09:06:04;14.60;99.90
27164;DHT22;14685;50.618;7.024;2023-03-23T09:08:32;14.60;99.90
27164;DHT22;14685;50.618;7.024;2023-03-23T09:10:59;14.70;99.90
27164;DHT22;14685;50.618;7.024;2023-03-23T09:13:26;14.80;99.90
27164;DHT22;14685;50.618;7.024;2023-03-23T09:15:54;14.80;99.90
27164;DHT22;14685;50.618;7.024;2023-03-23T09:18:21;14.80;99.90
27164;DHT22;14685;50.618;7.024;2023-03-23T09:20:53;14.90;99.90
27164;DHT22;14685;50.618;7.024;2023-03-23T09:23:20;14.90;99.90
27164;DHT22;14685;50.618;7.024;2023-03-23T09:25:47;14.90;99.90
27164;DHT22;14685;50.618;7.024;2023-03-23T09:28:15;15.00;99.90
27164;DHT22;14685;50.618;7.024;2023-03-23T09:30:42;15.10;99.90
27164;DHT22;14685;50.618;7.024;2023-03-23T09:33:18;15.10;99.90
27164;DHT22;14685;50.618;7.024;2023-03-23T09:35:45;15.20;99.90
27164;DHT22;14685;50.618;7.024;2023-03-23T09:38:13;15.30;99.90
27164;DHT22;14685;50.618;7.024;2023-03-23T09:41:13;15.30;99.90
27164;DHT22;14685;50.618;7.024;2023-03-23T09:43:54;15.40;99.90
27164;DHT22;14685;50.618;7.024;2023-03-23T09:46:53;15.50;99.90
27164;DHT22;14685;50.618;7.024;2023-03-23T09:49:34;15.40;99.90
27164;DHT22;14685;50.618;7.024;2023-03-23T09:52:16;15.50;99.90
27164;DHT22;14685;50.618;7.024;2023-03-23T09:54:49;15.60;99.90
27164;DHT22;14685;50.618;7.024;2023-03-23T09:57:31;15.60;99.90
27164;DHT22;14685;50.618;7.024;2023-03-23T10:00:19;15.70;99.90
27164;DHT22;14685;50.618;7.024;2023-03-23T10:05:40;15.70;99.90
27164;DHT22;14685;50.618;7.024;2023-03-23T10:08:14;15.80;99.90
27164;DHT22;14685;50.618;7.024;2023-03-23T10:15:47;15.80;99.90
27164;DHT22;14685;50.618;7.024;2023-03-23T10:18:20;15.80;99.90
27164;DHT22;14685;50.618;7.024;2023-03-23T10:20:58;15.80;99.90
27164;DHT22;14685;50.618;7.024;2023-03-23T10:23:54;15.80;99.90
27164;DHT22;14685;50.618;7.024;2023-03-23T10:27:22;15.90;99.90
27164;DHT22;14685;50.618;7.024;2023-03-23T10:29:36;16.00;99.90
27164;DHT22;14685;50.618;7.024;2023-03-23T10:32:14;16.00;99.90
27164;DHT22;14685;50.618;7.024;2023-03-23T10:37:17;16.00;99.90
27164;DHT22;14685;50.618;7.024;2023-03-23T10:39:52;16.10;99.90
27164;DHT22;14685;50.618;7.024;2023-03-23T10:42:29;16.10;99.90
27164;DHT22;14685;50.618;7.024;2023-03-23T10:45:12;16.00;99.90
27164;DHT22;14685;50.618;7.024;2023-03-23T10:47:42;16.00;99.90
27164;DHT22;14685;50.618;7.024;2023-03-23T10:50:17;15.90;99.90
27164;DHT22;14685;50.618;7.024;2023-03-23T10:52:44;15.90;99.90
27164;DHT22;14685;50.618;7.024;2023-03-23T10:55:20;15.80;99.90
27164;DHT22;14685;50.618;7.024;2023-03-23T10:58:00;15.80;99.90
27164;DHT22;14685;50.618;7.024;2023-03-23T11:00:28;15.80;99.90
27164;DHT22;14685;50.618;7.024;2023-03-23T11:05:51;15.80;99.90
27164;DHT22;14685;50.618;7.024;2023-03-23T11:08:20;15.90;99.90
27164;DHT22;14685;50.618;7.024;2023-03-23T11:17:59;16.00;99.90
27164;DHT22;14685;50.618;7.024;2023-03-23T11:20:28;16.10;99.90
27164;DHT22;14685;50.618;7.024;2023-03-23T11:22:56;16.10;99.90
27164;DHT22;14685;50.618;7.024;2023-03-23T11:25:23;16.20;99.90
27164;DHT22;14685;50.618;7.024;2023-03-23T11:27:50;16.10;99.90
27164;DHT22;14685;50.618;7.024;2023-03-23T11:30:24;16.20;99.90
27164;DHT22;14685;50.618;7.024;2023-03-23T11:32:51;16.20;99.90
27164;DHT22;14685;50.618;7.024;2023-03-23T11:35:26;16.10;99.90
27164;DHT22;14685;50.618;7.024;2023-03-23T11:37:55;16.10;99.90
27164;DHT22;14685;50.618;7.024;2023-03-23T11:40:30;16.00;99.90
27164;DHT22;14685;50.618;7.024;2023-03-23T11:43:09;16.10;99.90
27164;DHT22;14685;50.618;7.024;2023-03-23T11:45:39;16.10;99.90
27164;DHT22;14685;50.618;7.024;2023-03-23T11:48:27;16.10;99.90
27164;DHT22;14685;50.618;7.024;2023-03-23T11:51:13;16.20;99.90
27164;DHT22;14685;50.618;7.024;2023-03-23T11:53:53;16.30;99.90
27164;DHT22;14685;50.618;7.024;2023-03-23T11:56:41;16.50;99.90
27164;DHT22;14685;50.618;7.024;2023-03-23T11:59:25;16.60;99.90
27164;DHT22;14685;50.618;7.024;2023-03-23T12:10:41;16.80;99.90
27164;DHT22;14685;50.618;7.024;2023-03-23T12:16:52;17.00;99.90
27164;DHT22;14685;50.618;7.024;2023-03-23T12:22:24;17.10;99.90
27164;DHT22;14685;50.618;7.024;2023-03-23T12:28:02;17.10;99.90
27164;DHT22;14685;50.618;7.024;2023-03-23T12:39:39;17.30;99.90
27164;DHT22;14685;50.618;7.024;2023-03-23T12:48:07;17.20;99.90
27164;DHT22;14685;50.618;7.024;2023-03-23T12:50:37;17.20;99.90
27164;DHT22;14685;50.618;7.024;2023-03-23T12:53:11;17.20;99.90
27164;DHT22;14685;50.618;7.024;2023-03-23T12:55:49;17.20;99.90
27164;DHT22;14685;50.618;7.024;2023-03-23T12:58:20;17.20;99.90
27164;DHT22;14685;50.618;7.024;2023-03-23T13:01:02;17.20;99.90
27164;DHT22;14685;50.618;7.024;2023-03-23T13:09:03;17.20;99.90
27164;DHT22;14685;50.618;7.024;2023-03-23T13:11:35;17.30;99.90
27164;DHT22;14685;50.618;7.024;2023-03-23T13:14:24;17.30;99.90
27164;DHT22;14685;50.618;7.024;2023-03-23T13:22:44;17.30;99.90
27164;DHT22;14685;50.618;7.024;2023-03-23T13:25:19;17.30;99.90
27164;DHT22;14685;50.618;7.024;2023-03-23T13:27:57;17.30;99.90
27164;DHT22;14685;50.618;7.024;2023-03-23T13:30:25;17.30;99.90
27164;DHT22;14685;50.618;7.024;2023-03-23T13:33:05;17.40;99.90
27164;DHT22;14685;50.618;7.024;2023-03-23T13:35:37;17.40;99.90
27164;DHT22;14685;50.618;7.024;2023-03-23T13:38:15;17.40;99.90
27164;DHT22;14685;50.618;7.024;2023-03-23T13:40:44;17.50;99.90
27164;DHT22;14685;50.618;7.024;2023-03-23T13:43:12;17.40;99.90
27164;DHT22;14685;50.618;7.024;2023-03-23T13:45:47;17.30;99.90
27164;DHT22;14685;50.618;7.024;2023-03-23T13:50:51;17.40;99.90
27164;DHT22;14685;50.618;7.024;2023-03-23T13:53:43;17.30;99.90
27164;DHT22;14685;50.618;7.024;2023-03-23T13:58:48;17.20;99.90
27164;DHT22;14685;50.618;7.024;2023-03-23T14:01:19;17.20;99.90
27164;DHT22;14685;50.618;7.024;2023-03-23T14:03:48;17.20;99.90
27164;DHT22;14685;50.618;7.024;2023-03-23T14:06:20;17.20;99.90
27164;DHT22;14685;50.618;7.024;2023-03-23T14:08:51;17.20;99.90
27164;DHT22;14685;50.618;7.024;2023-03-23T14:11:23;17.20;99.90
27164;DHT22;14685;50.618;7.024;2023-03-23T14:14:13;17.20;99.90
27164;DHT22;14685;50.618;7.024;2023-03-23T14:16:44;17.20;99.90
27164;DHT22;14685;50.618;7.024;2023-03-23T14:19:27;17.20;99.90
27164;DHT22;14685;50.618;7.024;2023-03-23T14:22:00;17.20;99.90
27164;DHT22;14685;50.618;7.024;2023-03-23T14:24:39;17.20;99.90
27164;DHT22;14685;50.618;7.024;2023-03-23T14:27:21;17.20;99.90
27164;DHT22;14685;50.618;7.024;2023-03-23T14:29:59;17.10;99.90
27164;DHT22;14685;50.618;7.024;2023-03-23T14:32:28;17.10;99.90
27164;DHT22;14685;50.618;7.024;2023-03-23T14:34:57;17.10;99.90
27164;DHT22;14685;50.618;7.024;2023-03-23T14:37:27;17.10;99.90
27164;DHT22;14685;50.618;7.024;2023-03-23T14:39:55;17.20;99.90
27164;DHT22;14685;50.618;7.024;2023-03-23T14:42:34;17.20;99.90
27164;DHT22;14685;50.618;7.024;2023-03-23T14:45:14;17.30;99.90
27164;DHT22;14685;50.618;7.024;2023-03-23T14:47:59;17.30;99.90
27164;DHT22;14685;50.618;7.024;2023-03-23T14:50:38;17.30;99.90
27164;DHT22;14685;50.618;7.024;2023-03-23T14:55:47;17.30;99.90
27164;DHT22;14685;50.618;7.024;2023-03-23T14:58:19;17.30;99.90
27164;DHT22;14685;50.618;7.024;2023-03-23T15:03:24;17.20;99.90
27164;DHT22;14685;50.618;7.024;2023-03-23T15:05:55;17.20;99.90
27164;DHT22;14685;50.618;7.024;2023-03-23T15:08:33;17.20;99.90
27164;DHT22;14685;50.618;7.024;2023-03-23T15:11:08;17.20;99.90
27164;DHT22;14685;50.618;7.024;2023-03-23T15:13:47;17.10;99.90
27164;DHT22;14685;50.618;7.024;2023-03-23T15:16:28;17.10;99.90
27164;DHT22;14685;50.618;7.024;2023-03-23T15:19:02;17.10;99.90
27164;DHT22;14685;50.618;7.024;2023-03-23T15:21:32;17.10;99.90
27164;DHT22;14685;50.618;7.024;2023-03-23T15:24:01;17.10;99.90
27164;DHT22;14685;50.618;7.024;2023-03-23T15:26:33;17.00;99.90
27164;DHT22;14685;50.618;7.024;2023-03-23T15:31:45;16.90;99.90
27164;DHT22;14685;50.618;7.024;2023-03-23T15:34:27;16.90;99.90
27164;DHT22;14685;50.618;7.024;2023-03-23T15:37:03;16.90;99.90
27164;DHT22;14685;50.618;7.024;2023-03-23T15:39:45;16.90;99.90
27164;DHT22;14685;50.618;7.024;2023-03-23T15:42:26;16.80;99.90
27164;DHT22;14685;50.618;7.024;2023-03-23T15:50:20;16.70;99.90
27164;DHT22;14685;50.618;7.024;2023-03-23T15:52:59;16.80;99.90
27164;DHT22;14685;50.618;7.024;2023-03-23T15:55:27;16.80;99.90
27164;DHT22;14685;50.618;7.024;2023-03-23T15:57:57;16.80;99.90
27164;DHT22;14685;50.618;7.024;2023-03-23T16:00:26;16.80;99.90
27164;DHT22;14685;50.618;7.024;2023-03-23T16:02:59;16.80;99.90
27164;DHT22;14685;50.618;7.024;2023-03-23T16:05:27;16.80;99.90
27164;DHT22;14685;50.618;7.024;2023-03-23T16:07:54;16.80;99.90
27164;DHT22;14685;50.618;7.024;2023-03-23T16:10:23;16.70;99.90
27164;DHT22;14685;50.618;7.024;2023-03-23T16:12:50;16.80;99.90
27164;DHT22;14685;50.618;7.024;2023-03-23T16:15:18;16.80;99.90
27164;DHT22;14685;50.618;7.024;2023-03-23T16:17:45;16.80;99.90
27164;DHT22;14685;50.618;7.024;2023-03-23T16:20:20;16.80;99.90
27164;DHT22;14685;50.618;7.024;2023-03-23T16:22:48;16.80;99.90
27164;DHT22;14685;50.618;7.024;2023-03-23T16:25:16;16.80;99.90
27164;DHT22;14685;50.618;7.024;2023-03-23T16:27:44;16.70;99.90
27164;DHT22;14685;50.618;7.024;2023-03-23T16:30:21;16.70;99.90
27164;DHT22;14685;50.618;7.024;2023-03-23T16:32:48;16.60;99.90
27164;DHT22;14685;50.618;7.024;2023-03-23T16:35:17;16.50;99.90
27164;DHT22;14685;50.618;7.024;2023-03-23T16:37:51;16.50;99.90
27164;DHT22;14685;50.618;7.024;2023-03-23T16:40:35;16.50;99.90
27164;DHT22;14685;50.618;7.024;2023-03-23T16:43:02;16.50;99.90
27164;DHT22;14685;50.618;7.024;2023-03-23T16:45:34;16.40;99.90
27164;DHT22;14685;50.618;7.024;2023-03-23T16:48:01;16.30;99.90
27164;DHT22;14685;50.618;7.024;2023-03-23T16:50:28;16.30;99.90
27164;DHT22;14685;50.618;7.024;2023-03-23T16:52:55;16.30;99.90
27164;DHT22;14685;50.618;7.024;2023-03-23T16:55:22;16.20;99.90
27164;DHT22;14685;50.618;7.024;2023-03-23T16:57:52;16.20;99.90
27164;DHT22;14685;50.618;7.024;2023-03-23T17:00:39;16.10;99.90
27164;DHT22;14685;50.618;7.024;2023-03-23T17:03:06;16.10;99.90
27164;DHT22;14685;50.618;7.024;2023-03-23T17:05:35;16.00;99.90
27164;DHT22;14685;50.618;7.024;2023-03-23T17:08:03;16.00;99.90
27164;DHT22;14685;50.618;7.024;2023-03-23T17:10:31;15.90;99.90
27164;DHT22;14685;50.618;7.024;2023-03-23T17:12:59;15.90;99.90
27164;DHT22;14685;50.618;7.024;2023-03-23T17:15:25;15.90;99.90
27164;DHT22;14685;50.618;7.024;2023-03-23T17:17:52;15.90;99.90
27164;DHT22;14685;50.618;7.024;2023-03-23T17:20:21;15.90;99.90
27164;DHT22;14685;50.618;7.024;2023-03-23T17:22:48;15.90;99.90
27164;DHT22;14685;50.618;7.024;2023-03-23T17:25:15;15.80;99.90
27164;DHT22;14685;50.618;7.024;2023-03-23T17:27:42;15.80;99.90
27164;DHT22;14685;50.618;7.024;2023-03-23T17:30:10;15.80;99.90
27164;DHT22;14685;50.618;7.024;2023-03-23T17:32:37;15.90;99.90
27164;DHT22;14685;50.618;7.024;2023-03-23T17:35:05;15.90;99.90
27164;DHT22;14685;50.618;7.024;2023-03-23T17:37:33;15.90;99.90
27164;DHT22;14685;50.618;7.024;2023-03-23T17:40:02;15.80;99.90
27164;DHT22;14685;50.618;7.024;2023-03-23T17:42:29;15.80;99.90
27164;DHT22;14685;50.618;7.024;2023-03-23T17:44:56;15.80;99.90
27164;DHT22;14685;50.618;7.024;2023-03-23T17:47:23;15.70;99.90